PWSweather.com
Personal Weather Stations
Station Observations
WD4JKH
Forsyth, GA 31029

Forsyth, GA 31029

Lat: 33.033225, Lon: -83.927995

Elevation: 709

Station Type: Davis Vantage VUE

High Low Average
Temperature 66.4°F19.1°C 50.0°F10.0°C 58.1°F14.5°C
Dew Point 58.3°F14.6°C 45.8°F7.7°C 52.3°F11.3°C
Winds 9.6 mph 15.4 kmh Calm Calm 3.0 mph WSW4.8 kmh WSW
Wind Gusts 17.0 mph27.4 kmh 2.0 mph3.2 kmh 8.0 mph12.9 kmh
Humidity 90% 71% 81%
Pressure 30.20 in1022.7 mb 30.08 in1018.6 mb -
Precipitation 0.00 in0.0 mm - -
Hour Temp Dew Point Humidity Winds Wind Gusts Pressure Precip Precip Rate Daily Precip Total
12:01 AM 56.1°F13.4°C 46.2°F7.9°C 69% 2.4 mph SSW3.9 kmh SSW 8.0 mph12.9 kmh 30.17 in1021.7 mb 0.00 in0.0 mm 0.00 in0.0 mm 0.00 in0.0 mm
12:06 AM 55.8°F13.2°C 46.3°F7.9°C 70% 2.1 mph SSW3.4 kmh SSW 8.0 mph12.9 kmh 30.17 in1021.7 mb 0.00 in0.0 mm 0.00 in0.0 mm 0.00 in0.0 mm
12:11 AM 55.6°F13.1°C 46.1°F7.8°C 70% 2.1 mph S3.4 kmh S 6.0 mph9.7 kmh 30.16 in1021.3 mb 0.00 in0.0 mm 0.00 in0.0 mm 0.00 in0.0 mm
12:16 AM 55.5°F13.1°C 46.4°F8.0°C 71% 2.3 mph S3.7 kmh S 6.0 mph9.7 kmh 30.16 in1021.3 mb 0.00 in0.0 mm 0.00 in0.0 mm 0.00 in0.0 mm
12:21 AM 55.5°F13.1°C 46.4°F8.0°C 71% 2.5 mph SSW4.0 kmh SSW 6.0 mph9.7 kmh 30.17 in1021.7 mb 0.00 in0.0 mm 0.00 in0.0 mm 0.00 in0.0 mm
12:26 AM 55.3°F12.9°C 46.2°F7.9°C 71% 2.1 mph SSW3.4 kmh SSW 6.0 mph9.7 kmh 30.16 in1021.3 mb 0.00 in0.0 mm 0.00 in0.0 mm 0.00 in0.0 mm
12:31 AM 55.2°F12.9°C 46.1°F7.8°C 71% 1.9 mph S3.1 kmh S 6.0 mph9.7 kmh 30.15 in1021.0 mb 0.00 in0.0 mm 0.00 in0.0 mm 0.00 in0.0 mm
12:36 AM 55.3°F12.9°C 46.2°F7.9°C 71% 1.8 mph S2.9 kmh S 6.0 mph9.7 kmh 30.16 in1021.3 mb 0.00 in0.0 mm 0.00 in0.0 mm 0.00 in0.0 mm
12:41 AM 55.3°F12.9°C 46.2°F7.9°C 71% 2.5 mph SSW4.0 kmh SSW 6.0 mph9.7 kmh 30.16 in1021.3 mb 0.00 in0.0 mm 0.00 in0.0 mm 0.00 in0.0 mm
12:46 AM 55.3°F12.9°C 46.2°F7.9°C 71% 2.7 mph S4.3 kmh S 6.0 mph9.7 kmh 30.15 in1021.0 mb 0.00 in0.0 mm 0.00 in0.0 mm 0.00 in0.0 mm
12:51 AM 55.3°F12.9°C 46.2°F7.9°C 71% 2.9 mph S4.7 kmh S 6.0 mph9.7 kmh 30.16 in1021.3 mb 0.00 in0.0 mm 0.00 in0.0 mm 0.00 in0.0 mm
12:56 AM 55.2°F12.9°C 46.1°F7.8°C 71% 2.2 mph SSW3.5 kmh SSW 6.0 mph9.7 kmh 30.16 in1021.3 mb 0.00 in0.0 mm 0.00 in0.0 mm 0.00 in0.0 mm
01:01 AM 55.1°F12.8°C 46.0°F7.8°C 71% 1.8 mph SW2.9 kmh SW 6.0 mph9.7 kmh 30.16 in1021.3 mb 0.00 in0.0 mm 0.00 in0.0 mm 0.00 in0.0 mm
01:06 AM 55.1°F12.8°C 46.0°F7.8°C 71% 1.5 mph SW2.4 kmh SW 6.0 mph9.7 kmh 30.17 in1021.7 mb 0.00 in0.0 mm 0.00 in0.0 mm 0.00 in0.0 mm
01:11 AM 55.1°F12.8°C 46.0°F7.8°C 71% 1.6 mph WSW2.6 kmh WSW 6.0 mph9.7 kmh 30.17 in1021.7 mb 0.00 in0.0 mm 0.00 in0.0 mm 0.00 in0.0 mm
01:16 AM 55.1°F12.8°C 46.0°F7.8°C 71% 1.6 mph SW2.6 kmh SW 5.0 mph8.0 kmh 30.17 in1021.7 mb 0.00 in0.0 mm 0.00 in0.0 mm 0.00 in0.0 mm
01:20 AM 55.2°F12.9°C 46.1°F7.8°C 71% 1.4 mph SW2.3 kmh SW 4.0 mph6.4 kmh 30.17 in1021.7 mb 0.00 in0.0 mm 0.00 in0.0 mm 0.00 in0.0 mm
01:25 AM 55.2°F12.9°C 46.0°F7.8°C 71% 1.9 mph WSW3.1 kmh WSW 3.0 mph4.8 kmh 30.17 in1021.7 mb 0.00 in0.0 mm 0.00 in0.0 mm 0.00 in0.0 mm
01:30 AM 55.1°F12.8°C 45.9°F7.7°C 71% 1.5 mph SW2.4 kmh SW 3.0 mph4.8 kmh 30.17 in1021.7 mb 0.00 in0.0 mm 0.00 in0.0 mm 0.00 in0.0 mm
01:35 AM 55.1°F12.8°C 46.0°F7.8°C 71% 1.4 mph SW2.3 kmh SW 3.0 mph4.8 kmh 30.17 in1021.7 mb 0.00 in0.0 mm 0.00 in0.0 mm 0.00 in0.0 mm
01:40 AM 55.1°F12.8°C 46.0°F7.8°C 71% 1.2 mph SW1.9 kmh SW 3.0 mph4.8 kmh 30.17 in1021.7 mb 0.00 in0.0 mm 0.00 in0.0 mm 0.00 in0.0 mm
01:45 AM 55.1°F12.8°C 46.0°F7.8°C 71% 1.6 mph SW2.6 kmh SW 3.0 mph4.8 kmh 30.17 in1021.7 mb 0.00 in0.0 mm 0.00 in0.0 mm 0.00 in0.0 mm
01:50 AM 55.0°F12.8°C 46.2°F7.9°C 72% 1.4 mph SW2.3 kmh SW 3.0 mph4.8 kmh 30.17 in1021.7 mb 0.00 in0.0 mm 0.00 in0.0 mm 0.00 in0.0 mm
01:55 AM 54.9°F12.7°C 46.0°F7.8°C 72% 1.7 mph SW2.7 kmh SW 3.0 mph4.8 kmh 30.17 in1021.7 mb 0.00 in0.0 mm 0.00 in0.0 mm 0.00 in0.0 mm
02:00 AM 54.9°F12.7°C 46.2°F7.9°C 72% 2.1 mph SW3.4 kmh SW 4.0 mph6.4 kmh 30.17 in1021.7 mb 0.00 in0.0 mm 0.00 in0.0 mm 0.00 in0.0 mm
02:05 AM 54.9°F12.7°C 46.0°F7.8°C 72% 1.5 mph SW2.4 kmh SW 4.0 mph6.4 kmh 30.17 in1021.7 mb 0.00 in0.0 mm 0.00 in0.0 mm 0.00 in0.0 mm
02:10 AM 54.8°F12.7°C 45.9°F7.7°C 72% 1.0 mph SW1.6 kmh SW 4.0 mph6.4 kmh 30.17 in1021.7 mb 0.00 in0.0 mm 0.00 in0.0 mm 0.00 in0.0 mm
02:15 AM 54.5°F12.5°C 45.8°F7.7°C 72% Calm Calm 4.0 mph6.4 kmh 30.17 in1021.7 mb 0.00 in0.0 mm 0.00 in0.0 mm 0.00 in0.0 mm
02:20 AM 54.4°F12.4°C 46.0°F7.8°C 73% 1.0 mph SW1.6 kmh SW 3.0 mph4.8 kmh 30.17 in1021.7 mb 0.00 in0.0 mm 0.00 in0.0 mm 0.00 in0.0 mm
02:25 AM 54.4°F12.4°C 46.0°F7.8°C 73% 1.4 mph WSW2.3 kmh WSW 3.0 mph4.8 kmh 30.18 in1022.0 mb 0.00 in0.0 mm 0.00 in0.0 mm 0.00 in0.0 mm
02:30 AM 54.5°F12.5°C 46.1°F7.8°C 73% 1.3 mph WSW2.1 kmh WSW 3.0 mph4.8 kmh 30.18 in1022.0 mb 0.00 in0.0 mm 0.00 in0.0 mm 0.00 in0.0 mm
02:35 AM 54.6°F12.6°C 46.2°F7.9°C 73% 1.0 mph WSW1.6 kmh WSW 3.0 mph4.8 kmh 30.19 in1022.4 mb 0.00 in0.0 mm 0.00 in0.0 mm 0.00 in0.0 mm
02:40 AM 54.5°F12.5°C 46.1°F7.8°C 73% 1.0 mph SW1.6 kmh SW 3.0 mph4.8 kmh 30.18 in1022.0 mb 0.00 in0.0 mm 0.00 in0.0 mm 0.00 in0.0 mm
02:45 AM 54.2°F12.3°C 46.2°F7.9°C 74% 1.0 mph SW1.6 kmh SW 2.0 mph3.2 kmh 30.18 in1022.0 mb 0.00 in0.0 mm 0.00 in0.0 mm 0.00 in0.0 mm
02:50 AM 54.1°F12.3°C 46.4°F8.0°C 75% 1.2 mph SW1.9 kmh SW 2.0 mph3.2 kmh 30.18 in1022.0 mb 0.00 in0.0 mm 0.00 in0.0 mm 0.00 in0.0 mm
02:55 AM 54.1°F12.3°C 46.4°F8.0°C 75% 1.1 mph SW1.8 kmh SW 4.0 mph6.4 kmh 30.18 in1022.0 mb 0.00 in0.0 mm 0.00 in0.0 mm 0.00 in0.0 mm
03:00 AM 54.2°F12.3°C 46.5°F8.1°C 75% 1.3 mph SW2.1 kmh SW 4.0 mph6.4 kmh 30.18 in1022.0 mb 0.00 in0.0 mm 0.00 in0.0 mm 0.00 in0.0 mm
03:05 AM 54.4°F12.4°C 46.7°F8.2°C 75% 1.6 mph SW2.6 kmh SW 4.0 mph6.4 kmh 30.19 in1022.4 mb 0.00 in0.0 mm 0.00 in0.0 mm 0.00 in0.0 mm
03:10 AM 54.6°F12.6°C 46.9°F8.3°C 75% 1.5 mph SW2.4 kmh SW 4.0 mph6.4 kmh 30.19 in1022.4 mb 0.00 in0.0 mm 0.00 in0.0 mm 0.00 in0.0 mm
03:15 AM 54.8°F12.7°C 46.8°F8.2°C 74% 2.0 mph WSW3.2 kmh WSW 4.0 mph6.4 kmh 30.20 in1022.7 mb 0.00 in0.0 mm 0.00 in0.0 mm 0.00 in0.0 mm
03:20 AM 55.0°F12.8°C 47.0°F8.3°C 74% 1.1 mph WSW1.8 kmh WSW 4.0 mph6.4 kmh 30.20 in1022.7 mb 0.00 in0.0 mm 0.00 in0.0 mm 0.00 in0.0 mm
03:25 AM 55.0°F12.8°C 47.0°F8.3°C 74% 1.4 mph SW2.3 kmh SW 4.0 mph6.4 kmh 30.20 in1022.7 mb 0.00 in0.0 mm 0.00 in0.0 mm 0.00 in0.0 mm
03:30 AM 55.0°F12.8°C 46.9°F8.3°C 74% 1.4 mph SW2.3 kmh SW 4.0 mph6.4 kmh 30.19 in1022.4 mb 0.00 in0.0 mm 0.00 in0.0 mm 0.00 in0.0 mm
03:35 AM 54.9°F12.7°C 46.8°F8.2°C 74% 1.0 mph SW1.6 kmh SW 4.0 mph6.4 kmh 30.19 in1022.4 mb 0.00 in0.0 mm 0.00 in0.0 mm 0.00 in0.0 mm
03:40 AM 54.7°F12.6°C 47.0°F8.3°C 75% 1.3 mph WSW2.1 kmh WSW 4.0 mph6.4 kmh 30.19 in1022.4 mb 0.00 in0.0 mm 0.00 in0.0 mm 0.00 in0.0 mm
03:45 AM 54.7°F12.6°C 47.0°F8.3°C 75% Calm Calm 4.0 mph6.4 kmh 30.19 in1022.4 mb 0.00 in0.0 mm 0.00 in0.0 mm 0.00 in0.0 mm
03:50 AM 54.5°F12.5°C 46.8°F8.2°C 75% 1.0 mph SW1.6 kmh SW 3.0 mph4.8 kmh 30.19 in1022.4 mb 0.00 in0.0 mm 0.00 in0.0 mm 0.00 in0.0 mm
03:55 AM 54.3°F12.4°C 47.0°F8.3°C 76% 1.0 mph SW1.6 kmh SW 3.0 mph4.8 kmh 30.19 in1022.4 mb 0.00 in0.0 mm 0.00 in0.0 mm 0.00 in0.0 mm
04:00 AM 54.2°F12.3°C 46.8°F8.2°C 76% 1.0 mph SW1.6 kmh SW 3.0 mph4.8 kmh 30.19 in1022.4 mb 0.00 in0.0 mm 0.00 in0.0 mm 0.00 in0.0 mm
04:05 AM 54.1°F12.3°C 46.8°F8.2°C 76% 1.3 mph SW2.1 kmh SW 2.0 mph3.2 kmh 30.19 in1022.4 mb 0.00 in0.0 mm 0.00 in0.0 mm 0.00 in0.0 mm
04:10 AM 53.9°F12.2°C 46.6°F8.1°C 76% 1.3 mph SW2.1 kmh SW 2.0 mph3.2 kmh 30.19 in1022.4 mb 0.00 in0.0 mm 0.00 in0.0 mm 0.00 in0.0 mm
04:15 AM 53.8°F12.1°C 46.8°F8.2°C 77% 1.3 mph SW2.1 kmh SW 2.0 mph3.2 kmh 30.19 in1022.4 mb 0.00 in0.0 mm 0.00 in0.0 mm 0.00 in0.0 mm
04:20 AM 53.5°F11.9°C 46.5°F8.1°C 77% 1.1 mph SW1.8 kmh SW 2.0 mph3.2 kmh 30.19 in1022.4 mb 0.00 in0.0 mm 0.00 in0.0 mm 0.00 in0.0 mm
04:25 AM 53.3°F11.8°C 46.7°F8.2°C 78% 1.6 mph SW2.6 kmh SW 3.0 mph4.8 kmh 30.19 in1022.4 mb 0.00 in0.0 mm 0.00 in0.0 mm 0.00 in0.0 mm
04:30 AM 53.3°F11.8°C 46.6°F8.1°C 78% 1.3 mph SW2.1 kmh SW 4.0 mph6.4 kmh 30.19 in1022.4 mb 0.00 in0.0 mm 0.00 in0.0 mm 0.00 in0.0 mm
04:35 AM 53.3°F11.8°C 46.6°F8.1°C 78% 1.9 mph SW3.1 kmh SW 4.0 mph6.4 kmh 30.19 in1022.4 mb 0.00 in0.0 mm 0.00 in0.0 mm 0.00 in0.0 mm
04:40 AM 53.4°F11.9°C 46.8°F8.2°C 78% 1.5 mph SW2.4 kmh SW 4.0 mph6.4 kmh 30.18 in1022.0 mb 0.00 in0.0 mm 0.00 in0.0 mm 0.00 in0.0 mm
04:45 AM 53.4°F11.9°C 46.8°F8.2°C 78% Calm Calm 4.0 mph6.4 kmh 30.18 in1022.0 mb 0.00 in0.0 mm 0.00 in0.0 mm 0.00 in0.0 mm
04:50 AM 53.4°F11.9°C 46.8°F8.2°C 78% Calm Calm 3.0 mph4.8 kmh 30.18 in1022.0 mb 0.00 in0.0 mm 0.00 in0.0 mm 0.00 in0.0 mm
04:55 AM 53.3°F11.8°C 46.7°F8.2°C 78% 1.4 mph SW2.3 kmh SW 2.0 mph3.2 kmh 30.18 in1022.0 mb 0.00 in0.0 mm 0.00 in0.0 mm 0.00 in0.0 mm
05:00 AM 53.2°F11.8°C 46.9°F8.3°C 79% 1.5 mph SW2.4 kmh SW 3.0 mph4.8 kmh 30.18 in1022.0 mb 0.00 in0.0 mm 0.00 in0.0 mm 0.00 in0.0 mm
05:05 AM 53.0°F11.7°C 46.7°F8.2°C 79% 2.0 mph SW3.2 kmh SW 5.0 mph8.0 kmh 30.18 in1022.0 mb 0.00 in0.0 mm 0.00 in0.0 mm 0.00 in0.0 mm
05:10 AM 52.9°F11.6°C 46.6°F8.1°C 79% 1.6 mph SW2.6 kmh SW 5.0 mph8.0 kmh 30.18 in1022.0 mb 0.00 in0.0 mm 0.00 in0.0 mm 0.00 in0.0 mm
05:15 AM 52.8°F11.6°C 46.8°F8.2°C 80% 1.2 mph SW1.9 kmh SW 5.0 mph8.0 kmh 30.18 in1022.0 mb 0.00 in0.0 mm 0.00 in0.0 mm 0.00 in0.0 mm
05:20 AM 52.6°F11.4°C 46.6°F8.1°C 80% 1.8 mph SW2.9 kmh SW 5.0 mph8.0 kmh 30.17 in1021.7 mb 0.00 in0.0 mm 0.00 in0.0 mm 0.00 in0.0 mm
05:25 AM 52.4°F11.3°C 46.8°F8.2°C 81% 1.3 mph SW2.1 kmh SW 4.0 mph6.4 kmh 30.17 in1021.7 mb 0.00 in0.0 mm 0.00 in0.0 mm 0.00 in0.0 mm
05:30 AM 52.2°F11.2°C 46.6°F8.1°C 81% 1.8 mph SW2.9 kmh SW 4.0 mph6.4 kmh 30.17 in1021.7 mb 0.00 in0.0 mm 0.00 in0.0 mm 0.00 in0.0 mm
05:35 AM 52.2°F11.2°C 46.6°F8.1°C 81% 1.3 mph SW2.1 kmh SW 3.0 mph4.8 kmh 30.18 in1022.0 mb 0.00 in0.0 mm 0.00 in0.0 mm 0.00 in0.0 mm
05:40 AM 52.1°F11.2°C 46.8°F8.2°C 82% 1.3 mph SW2.1 kmh SW 3.0 mph4.8 kmh 30.17 in1021.7 mb 0.00 in0.0 mm 0.00 in0.0 mm 0.00 in0.0 mm
05:45 AM 51.9°F11.1°C 46.6°F8.1°C 82% 1.4 mph SW2.3 kmh SW 3.0 mph4.8 kmh 30.18 in1022.0 mb 0.00 in0.0 mm 0.00 in0.0 mm 0.00 in0.0 mm
05:50 AM 51.8°F11.0°C 46.5°F8.1°C 82% 1.3 mph SW2.1 kmh SW 3.0 mph4.8 kmh 30.18 in1022.0 mb 0.00 in0.0 mm 0.00 in0.0 mm 0.00 in0.0 mm
05:55 AM 51.9°F11.1°C 46.6°F8.1°C 82% 1.4 mph WSW2.3 kmh WSW 3.0 mph4.8 kmh 30.18 in1022.0 mb 0.00 in0.0 mm 0.00 in0.0 mm 0.00 in0.0 mm
06:00 AM 52.1°F11.2°C 46.8°F8.2°C 82% 1.8 mph SW2.9 kmh SW 4.0 mph6.4 kmh 30.18 in1022.0 mb 0.00 in0.0 mm 0.00 in0.0 mm 0.00 in0.0 mm
06:05 AM 52.2°F11.2°C 46.9°F8.3°C 82% 2.2 mph SW3.5 kmh SW 4.0 mph6.4 kmh 30.18 in1022.0 mb 0.00 in0.0 mm 0.00 in0.0 mm 0.00 in0.0 mm
06:10 AM 52.1°F11.2°C 46.8°F8.2°C 82% 1.9 mph SW3.1 kmh SW 4.0 mph6.4 kmh 30.18 in1022.0 mb 0.00 in0.0 mm 0.00 in0.0 mm 0.00 in0.0 mm
06:15 AM 52.2°F11.2°C 46.9°F8.3°C 82% 1.9 mph SW3.1 kmh SW 4.0 mph6.4 kmh 30.18 in1022.0 mb 0.00 in0.0 mm 0.00 in0.0 mm 0.00 in0.0 mm
06:20 AM 52.2°F11.2°C 46.9°F8.3°C 82% 1.7 mph SW2.7 kmh SW 4.0 mph6.4 kmh 30.17 in1021.7 mb 0.00 in0.0 mm 0.00 in0.0 mm 0.00 in0.0 mm
06:25 AM 52.3°F11.3°C 47.0°F8.3°C 82% 1.6 mph SW2.6 kmh SW 4.0 mph6.4 kmh 30.17 in1021.7 mb 0.00 in0.0 mm 0.00 in0.0 mm 0.00 in0.0 mm
06:30 AM 52.1°F11.2°C 46.8°F8.2°C 82% 1.7 mph SW2.7 kmh SW 4.0 mph6.4 kmh 30.17 in1021.7 mb 0.00 in0.0 mm 0.00 in0.0 mm 0.00 in0.0 mm
06:35 AM 52.1°F11.2°C 46.8°F8.2°C 82% 1.8 mph SW2.9 kmh SW 4.0 mph6.4 kmh 30.17 in1021.7 mb 0.00 in0.0 mm 0.00 in0.0 mm 0.00 in0.0 mm
06:40 AM 51.9°F11.1°C 46.6°F8.1°C 82% 1.9 mph SW3.1 kmh SW 4.0 mph6.4 kmh 30.17 in1021.7 mb 0.00 in0.0 mm 0.00 in0.0 mm 0.00 in0.0 mm
06:45 AM 51.8°F11.0°C 46.8°F8.2°C 83% 1.5 mph SW2.4 kmh SW 4.0 mph6.4 kmh 30.17 in1021.7 mb 0.00 in0.0 mm 0.00 in0.0 mm 0.00 in0.0 mm
06:50 AM 51.7°F10.9°C 46.7°F8.2°C 83% 2.2 mph SW3.5 kmh SW 5.0 mph8.0 kmh 30.17 in1021.7 mb 0.00 in0.0 mm 0.00 in0.0 mm 0.00 in0.0 mm
06:55 AM 51.6°F10.9°C 46.6°F8.1°C 83% 1.9 mph SW3.1 kmh SW 5.0 mph8.0 kmh 30.17 in1021.7 mb 0.00 in0.0 mm 0.00 in0.0 mm 0.00 in0.0 mm
07:00 AM 51.5°F10.8°C 46.5°F8.1°C 83% 2.0 mph WSW3.2 kmh WSW 5.0 mph8.0 kmh 30.17 in1021.7 mb 0.00 in0.0 mm 0.00 in0.0 mm 0.00 in0.0 mm
07:05 AM 51.6°F10.9°C 46.9°F8.3°C 84% 2.9 mph WSW4.7 kmh WSW 5.0 mph8.0 kmh 30.17 in1021.7 mb 0.00 in0.0 mm 0.00 in0.0 mm 0.00 in0.0 mm
07:10 AM 51.6°F10.9°C 46.6°F8.1°C 83% 1.5 mph SW2.4 kmh SW 5.0 mph8.0 kmh 30.17 in1021.7 mb 0.00 in0.0 mm 0.00 in0.0 mm 0.00 in0.0 mm
07:15 AM 51.6°F10.9°C 46.6°F8.1°C 83% 2.0 mph SW3.2 kmh SW 5.0 mph8.0 kmh 30.17 in1021.7 mb 0.00 in0.0 mm 0.00 in0.0 mm 0.00 in0.0 mm
07:19 AM 51.6°F10.9°C 46.9°F8.3°C 84% 2.1 mph SW3.4 kmh SW 5.0 mph8.0 kmh 30.17 in1021.7 mb 0.00 in0.0 mm 0.00 in0.0 mm 0.00 in0.0 mm
07:24 AM 51.5°F10.8°C 46.8°F8.2°C 84% 2.0 mph SW3.2 kmh SW 5.0 mph8.0 kmh 30.17 in1021.7 mb 0.00 in0.0 mm 0.00 in0.0 mm 0.00 in0.0 mm
07:29 AM 51.4°F10.8°C 46.7°F8.2°C 84% 1.9 mph SW3.1 kmh SW 5.0 mph8.0 kmh 30.17 in1021.7 mb 0.00 in0.0 mm 0.00 in0.0 mm 0.00 in0.0 mm
07:34 AM 51.4°F10.8°C 46.7°F8.2°C 84% 1.4 mph WSW2.3 kmh WSW 5.0 mph8.0 kmh 30.17 in1021.7 mb 0.00 in0.0 mm 0.00 in0.0 mm 0.00 in0.0 mm
07:39 AM 51.3°F10.7°C 46.6°F8.1°C 84% 1.9 mph SW3.1 kmh SW 5.0 mph8.0 kmh 30.17 in1021.7 mb 0.00 in0.0 mm 0.00 in0.0 mm 0.00 in0.0 mm
07:44 AM 51.1°F10.6°C 46.4°F8.0°C 84% 1.8 mph SW2.9 kmh SW 5.0 mph8.0 kmh 30.17 in1021.7 mb 0.00 in0.0 mm 0.00 in0.0 mm 0.00 in0.0 mm
07:49 AM 51.0°F10.6°C 46.6°F8.1°C 85% 1.7 mph SW2.7 kmh SW 5.0 mph8.0 kmh 30.17 in1021.7 mb 0.00 in0.0 mm 0.00 in0.0 mm 0.00 in0.0 mm
07:54 AM 50.8°F10.4°C 46.4°F8.0°C 85% 2.6 mph SW4.2 kmh SW 5.0 mph8.0 kmh 30.17 in1021.7 mb 0.00 in0.0 mm 0.00 in0.0 mm 0.00 in0.0 mm
07:59 AM 50.7°F10.4°C 46.7°F8.2°C 86% 2.6 mph SW4.2 kmh SW 5.0 mph8.0 kmh 30.17 in1021.7 mb 0.00 in0.0 mm 0.00 in0.0 mm 0.00 in0.0 mm
08:04 AM 50.6°F10.3°C 46.6°F8.1°C 86% 2.6 mph SW4.2 kmh SW 5.0 mph8.0 kmh 30.16 in1021.3 mb 0.00 in0.0 mm 0.00 in0.0 mm 0.00 in0.0 mm
08:09 AM 50.5°F10.3°C 46.5°F8.1°C 86% 2.1 mph SW3.4 kmh SW 5.0 mph8.0 kmh 30.16 in1021.3 mb 0.00 in0.0 mm 0.00 in0.0 mm 0.00 in0.0 mm
08:14 AM 50.4°F10.2°C 46.4°F8.0°C 86% 2.2 mph SW3.5 kmh SW 5.0 mph8.0 kmh 30.17 in1021.7 mb 0.00 in0.0 mm 0.00 in0.0 mm 0.00 in0.0 mm
08:19 AM 50.3°F10.2°C 46.6°F8.1°C 87% 1.8 mph SW2.9 kmh SW 5.0 mph8.0 kmh 30.17 in1021.7 mb 0.00 in0.0 mm 0.00 in0.0 mm 0.00 in0.0 mm
08:24 AM 50.2°F10.1°C 46.5°F8.1°C 87% 1.3 mph WSW2.1 kmh WSW 5.0 mph8.0 kmh 30.17 in1021.7 mb 0.00 in0.0 mm 0.00 in0.0 mm 0.00 in0.0 mm
08:29 AM 50.3°F10.2°C 46.6°F8.1°C 87% 1.9 mph SW3.1 kmh SW 5.0 mph8.0 kmh 30.17 in1021.7 mb 0.00 in0.0 mm 0.00 in0.0 mm 0.00 in0.0 mm
08:34 AM 50.3°F10.2°C 46.9°F8.3°C 88% 1.7 mph WSW2.7 kmh WSW 4.0 mph6.4 kmh 30.17 in1021.7 mb 0.00 in0.0 mm 0.00 in0.0 mm 0.00 in0.0 mm
08:39 AM 50.3°F10.2°C 46.9°F8.3°C 88% 1.6 mph SW2.6 kmh SW 5.0 mph8.0 kmh 30.17 in1021.7 mb 0.00 in0.0 mm 0.00 in0.0 mm 0.00 in0.0 mm
08:44 AM 50.2°F10.1°C 46.8°F8.2°C 88% 2.2 mph SW3.5 kmh SW 5.0 mph8.0 kmh 30.17 in1021.7 mb 0.00 in0.0 mm 0.00 in0.0 mm 0.00 in0.0 mm
08:49 AM 50.1°F10.1°C 46.7°F8.2°C 88% 1.8 mph SW2.9 kmh SW 5.0 mph8.0 kmh 30.17 in1021.7 mb 0.00 in0.0 mm 0.00 in0.0 mm 0.00 in0.0 mm
08:54 AM 50.0°F10.0°C 46.6°F8.1°C 88% 1.9 mph SW3.1 kmh SW 5.0 mph8.0 kmh 30.17 in1021.7 mb 0.00 in0.0 mm 0.00 in0.0 mm 0.00 in0.0 mm
08:59 AM 50.1°F10.1°C 47.0°F8.3°C 89% 1.9 mph SW3.1 kmh SW 5.0 mph8.0 kmh 30.18 in1022.0 mb 0.00 in0.0 mm 0.00 in0.0 mm 0.00 in0.0 mm
09:04 AM 50.1°F10.1°C 47.0°F8.3°C 89% 1.7 mph WSW2.7 kmh WSW 5.0 mph8.0 kmh 30.18 in1022.0 mb 0.00 in0.0 mm 0.00 in0.0 mm 0.00 in0.0 mm
09:09 AM 50.2°F10.1°C 47.1°F8.4°C 89% 1.4 mph WSW2.3 kmh WSW 5.0 mph8.0 kmh 30.18 in1022.0 mb 0.00 in0.0 mm 0.00 in0.0 mm 0.00 in0.0 mm
09:14 AM 50.3°F10.2°C 47.1°F8.4°C 89% 1.8 mph WSW2.9 kmh WSW 5.0 mph8.0 kmh 30.18 in1022.0 mb 0.00 in0.0 mm 0.00 in0.0 mm 0.00 in0.0 mm
09:19 AM 50.3°F10.2°C 47.1°F8.4°C 89% 2.6 mph SW4.2 kmh SW 5.0 mph8.0 kmh 30.18 in1022.0 mb 0.00 in0.0 mm 0.00 in0.0 mm 0.00 in0.0 mm
09:24 AM 50.1°F10.1°C 47.0°F8.3°C 89% 2.4 mph SW3.9 kmh SW 6.0 mph9.7 kmh 30.18 in1022.0 mb 0.00 in0.0 mm 0.00 in0.0 mm 0.00 in0.0 mm
09:29 AM 50.1°F10.1°C 47.0°F8.3°C 89% 2.5 mph SW4.0 kmh SW 7.0 mph11.3 kmh 30.18 in1022.0 mb 0.00 in0.0 mm 0.00 in0.0 mm 0.00 in0.0 mm
09:34 AM 50.1°F10.1°C 47.2°F8.4°C 90% 2.4 mph SW3.9 kmh SW 7.0 mph11.3 kmh 30.18 in1022.0 mb 0.00 in0.0 mm 0.00 in0.0 mm 0.00 in0.0 mm
09:39 AM 50.2°F10.1°C 47.1°F8.4°C 89% 2.8 mph SW4.5 kmh SW 7.0 mph11.3 kmh 30.18 in1022.0 mb 0.00 in0.0 mm 0.00 in0.0 mm 0.00 in0.0 mm
09:44 AM 50.4°F10.2°C 47.2°F8.4°C 89% 3.0 mph SW4.8 kmh SW 7.0 mph11.3 kmh 30.18 in1022.0 mb 0.00 in0.0 mm 0.00 in0.0 mm 0.00 in0.0 mm
09:49 AM 50.6°F10.3°C 47.4°F8.6°C 89% 2.9 mph SW4.7 kmh SW 7.0 mph11.3 kmh 30.18 in1022.0 mb 0.00 in0.0 mm 0.00 in0.0 mm 0.00 in0.0 mm
09:54 AM 50.8°F10.4°C 47.6°F8.7°C 89% 3.4 mph SW5.5 kmh SW 8.0 mph12.9 kmh 30.19 in1022.4 mb 0.00 in0.0 mm 0.00 in0.0 mm 0.00 in0.0 mm
09:59 AM 51.2°F10.7°C 48.0°F8.9°C 89% 2.1 mph SW3.4 kmh SW 9.0 mph14.5 kmh 30.19 in1022.4 mb 0.00 in0.0 mm 0.00 in0.0 mm 0.00 in0.0 mm
10:04 AM 51.6°F10.9°C 48.4°F9.1°C 89% 3.2 mph SW5.1 kmh SW 9.0 mph14.5 kmh 30.19 in1022.4 mb 0.00 in0.0 mm 0.00 in0.0 mm 0.00 in0.0 mm
10:09 AM 52.0°F11.1°C 48.5°F9.2°C 88% 3.6 mph SW5.8 kmh SW 9.0 mph14.5 kmh 30.19 in1022.4 mb 0.00 in0.0 mm 0.00 in0.0 mm 0.00 in0.0 mm
10:14 AM 52.4°F11.3°C 48.9°F9.4°C 88% 3.9 mph SW6.3 kmh SW 9.0 mph14.5 kmh 30.19 in1022.4 mb 0.00 in0.0 mm 0.00 in0.0 mm 0.00 in0.0 mm
10:19 AM 52.8°F11.6°C 49.0°F9.4°C 87% 3.4 mph SW5.5 kmh SW 8.0 mph12.9 kmh 30.19 in1022.4 mb 0.00 in0.0 mm 0.00 in0.0 mm 0.00 in0.0 mm
10:24 AM 53.2°F11.8°C 49.4°F9.7°C 87% 2.4 mph WSW3.9 kmh WSW 8.0 mph12.9 kmh 30.19 in1022.4 mb 0.00 in0.0 mm 0.00 in0.0 mm 0.00 in0.0 mm
10:29 AM 53.7°F12.1°C 49.9°F9.9°C 87% 1.5 mph WSW2.4 kmh WSW 8.0 mph12.9 kmh 30.19 in1022.4 mb 0.00 in0.0 mm 0.00 in0.0 mm 0.00 in0.0 mm
10:34 AM 54.2°F12.3°C 50.4°F10.2°C 87% 2.2 mph WSW3.5 kmh WSW 7.0 mph11.3 kmh 30.20 in1022.7 mb 0.00 in0.0 mm 0.00 in0.0 mm 0.00 in0.0 mm
10:39 AM 54.7°F12.6°C 50.6°F10.3°C 86% 1.7 mph WSW2.7 kmh WSW 7.0 mph11.3 kmh 30.20 in1022.7 mb 0.00 in0.0 mm 0.00 in0.0 mm 0.00 in0.0 mm
10:44 AM 55.1°F12.8°C 51.0°F10.6°C 86% 3.4 mph WSW5.5 kmh WSW 12.0 mph19.3 kmh 30.20 in1022.7 mb 0.00 in0.0 mm 0.00 in0.0 mm 0.00 in0.0 mm
10:49 AM 55.7°F13.2°C 51.6°F10.9°C 86% 2.3 mph SW3.7 kmh SW 12.0 mph19.3 kmh 30.19 in1022.4 mb 0.00 in0.0 mm 0.00 in0.0 mm 0.00 in0.0 mm
10:54 AM 56.2°F13.4°C 51.8°F11.0°C 85% 2.4 mph SW3.9 kmh SW 12.0 mph19.3 kmh 30.19 in1022.4 mb 0.00 in0.0 mm 0.00 in0.0 mm 0.00 in0.0 mm
10:59 AM 56.8°F13.8°C 52.3°F11.3°C 85% 4.3 mph WSW6.9 kmh WSW 12.0 mph19.3 kmh 30.19 in1022.4 mb 0.00 in0.0 mm 0.00 in0.0 mm 0.00 in0.0 mm
11:04 AM 57.2°F14.0°C 52.4°F11.3°C 84% 4.7 mph WSW7.6 kmh WSW 8.0 mph12.9 kmh 30.19 in1022.4 mb 0.00 in0.0 mm 0.00 in0.0 mm 0.00 in0.0 mm
11:09 AM 57.6°F14.2°C 52.8°F11.6°C 84% 4.5 mph WSW7.2 kmh WSW 10.0 mph16.1 kmh 30.19 in1022.4 mb 0.00 in0.0 mm 0.00 in0.0 mm 0.00 in0.0 mm
11:14 AM 58.2°F14.6°C 53.4°F11.9°C 84% 4.1 mph WSW6.6 kmh WSW 10.0 mph16.1 kmh 30.19 in1022.4 mb 0.00 in0.0 mm 0.00 in0.0 mm 0.00 in0.0 mm
11:19 AM 58.7°F14.8°C 53.6°F12.0°C 83% 4.0 mph WSW6.4 kmh WSW 10.0 mph16.1 kmh 30.19 in1022.4 mb 0.00 in0.0 mm 0.00 in0.0 mm 0.00 in0.0 mm
11:24 AM 58.9°F14.9°C 53.8°F12.1°C 83% 4.1 mph WSW6.6 kmh WSW 10.0 mph16.1 kmh 30.19 in1022.4 mb 0.00 in0.0 mm 0.00 in0.0 mm 0.00 in0.0 mm
11:29 AM 59.2°F15.1°C 53.7°F12.1°C 82% 6.4 mph WSW10.3 kmh WSW 12.0 mph19.3 kmh 30.19 in1022.4 mb 0.00 in0.0 mm 0.00 in0.0 mm 0.00 in0.0 mm
11:34 AM 59.3°F15.2°C 53.8°F12.1°C 82% 5.3 mph WSW8.5 kmh WSW 13.0 mph20.9 kmh 30.19 in1022.4 mb 0.00 in0.0 mm 0.00 in0.0 mm 0.00 in0.0 mm
11:39 AM 59.9°F15.5°C 54.4°F12.4°C 82% 6.1 mph WSW9.8 kmh WSW 13.0 mph20.9 kmh 30.19 in1022.4 mb 0.00 in0.0 mm 0.00 in0.0 mm 0.00 in0.0 mm
11:44 AM 60.7°F15.9°C 54.8°F12.7°C 81% 1.0 mph W1.6 kmh W 13.0 mph20.9 kmh 30.19 in1022.4 mb 0.00 in0.0 mm 0.00 in0.0 mm 0.00 in0.0 mm
11:49 AM 61.0°F16.1°C 54.8°F12.7°C 80% 3.6 mph WSW5.8 kmh WSW 13.0 mph20.9 kmh 30.19 in1022.4 mb 0.00 in0.0 mm 0.00 in0.0 mm 0.00 in0.0 mm
11:54 AM 61.3°F16.3°C 55.1°F12.8°C 80% 3.6 mph W5.8 kmh W 13.0 mph20.9 kmh 30.19 in1022.4 mb 0.00 in0.0 mm 0.00 in0.0 mm 0.00 in0.0 mm
11:59 AM 61.6°F16.4°C 55.1°F12.8°C 79% 2.5 mph WSW4.0 kmh WSW 11.0 mph17.7 kmh 30.19 in1022.4 mb 0.00 in0.0 mm 0.00 in0.0 mm 0.00 in0.0 mm
12:04 PM 61.6°F16.4°C 55.1°F12.8°C 79% 6.3 mph W10.1 kmh W 12.0 mph19.3 kmh 30.18 in1022.0 mb 0.00 in0.0 mm 0.00 in0.0 mm 0.00 in0.0 mm
12:09 PM 62.0°F16.7°C 55.5°F13.1°C 79% 2.4 mph WSW3.9 kmh WSW 12.0 mph19.3 kmh 30.18 in1022.0 mb 0.00 in0.0 mm 0.00 in0.0 mm 0.00 in0.0 mm
12:14 PM 62.3°F16.8°C 55.4°F13.0°C 78% 5.7 mph WSW9.2 kmh WSW 12.0 mph19.3 kmh 30.18 in1022.0 mb 0.00 in0.0 mm 0.00 in0.0 mm 0.00 in0.0 mm
12:19 PM 62.6°F17.0°C 56.1°F13.4°C 79% 2.8 mph WSW4.5 kmh WSW 12.0 mph19.3 kmh 30.18 in1022.0 mb 0.00 in0.0 mm 0.00 in0.0 mm 0.00 in0.0 mm
12:24 PM 63.2°F17.3°C 56.3°F13.5°C 78% 3.0 mph WSW4.8 kmh WSW 9.0 mph14.5 kmh 30.17 in1021.7 mb 0.00 in0.0 mm 0.00 in0.0 mm 0.00 in0.0 mm
12:29 PM 63.3°F17.4°C 56.0°F13.3°C 77% 9.6 mph WSW15.4 kmh WSW 16.0 mph25.7 kmh 30.17 in1021.7 mb 0.00 in0.0 mm 0.00 in0.0 mm 0.00 in0.0 mm
12:34 PM 63.3°F17.4°C 56.4°F13.6°C 78% 4.2 mph WSW6.8 kmh WSW 16.0 mph25.7 kmh 30.17 in1021.7 mb 0.00 in0.0 mm 0.00 in0.0 mm 0.00 in0.0 mm
12:39 PM 63.3°F17.4°C 56.4°F13.6°C 78% 2.3 mph W3.7 kmh W 16.0 mph25.7 kmh 30.16 in1021.3 mb 0.00 in0.0 mm 0.00 in0.0 mm 0.00 in0.0 mm
12:44 PM 63.7°F17.6°C 56.4°F13.6°C 77% 4.9 mph W7.9 kmh W 16.0 mph25.7 kmh 30.16 in1021.3 mb 0.00 in0.0 mm 0.00 in0.0 mm 0.00 in0.0 mm
12:49 PM 64.2°F17.9°C 57.3°F14.1°C 78% 2.9 mph WSW4.7 kmh WSW 16.0 mph25.7 kmh 30.15 in1021.0 mb 0.00 in0.0 mm 0.00 in0.0 mm 0.00 in0.0 mm
12:54 PM 64.5°F18.1°C 56.9°F13.8°C 76% 5.8 mph SW9.3 kmh SW 11.0 mph17.7 kmh 30.15 in1021.0 mb 0.00 in0.0 mm 0.00 in0.0 mm 0.00 in0.0 mm
12:59 PM 64.5°F18.1°C 57.2°F14.0°C 77% 6.2 mph WSW10.0 kmh WSW 14.0 mph22.5 kmh 30.15 in1021.0 mb 0.00 in0.0 mm 0.00 in0.0 mm 0.00 in0.0 mm
01:04 PM 64.7°F18.2°C 57.1°F13.9°C 76% 3.8 mph WSW6.1 kmh WSW 14.0 mph22.5 kmh 30.14 in1020.7 mb 0.00 in0.0 mm 0.00 in0.0 mm 0.00 in0.0 mm
01:09 PM 65.0°F18.3°C 57.2°F14.0°C 76% 7.2 mph WSW11.6 kmh WSW 17.0 mph27.4 kmh 30.14 in1020.7 mb 0.00 in0.0 mm 0.00 in0.0 mm 0.00 in0.0 mm
01:14 PM 65.0°F18.3°C 57.2°F14.0°C 76% 4.5 mph WSW7.2 kmh WSW 17.0 mph27.4 kmh 30.13 in1020.3 mb 0.00 in0.0 mm 0.00 in0.0 mm 0.00 in0.0 mm
01:18 PM 65.0°F18.3°C 57.2°F14.0°C 76% 4.6 mph WSW7.4 kmh WSW 17.0 mph27.4 kmh 30.13 in1020.3 mb 0.00 in0.0 mm 0.00 in0.0 mm 0.00 in0.0 mm
01:23 PM 65.2°F18.4°C 57.4°F14.1°C 76% 3.7 mph SW6.0 kmh SW 17.0 mph27.4 kmh 30.13 in1020.3 mb 0.00 in0.0 mm 0.00 in0.0 mm 0.00 in0.0 mm
01:28 PM 65.5°F18.6°C 57.4°F14.1°C 75% 3.6 mph WSW5.8 kmh WSW 15.0 mph24.1 kmh 30.13 in1020.3 mb 0.00 in0.0 mm 0.00 in0.0 mm 0.00 in0.0 mm
01:33 PM 65.4°F18.6°C 57.4°F14.1°C 75% 4.8 mph WSW7.7 kmh WSW 15.0 mph24.1 kmh 30.13 in1020.3 mb 0.00 in0.0 mm 0.00 in0.0 mm 0.00 in0.0 mm
01:38 PM 65.2°F18.4°C 57.6°F14.2°C 76% 4.8 mph WSW7.7 kmh WSW 11.0 mph17.7 kmh 30.12 in1020.0 mb 0.00 in0.0 mm 0.00 in0.0 mm 0.00 in0.0 mm
01:43 PM 65.1°F18.4°C 57.5°F14.2°C 76% 4.4 mph WSW7.1 kmh WSW 11.0 mph17.7 kmh 30.12 in1020.0 mb 0.00 in0.0 mm 0.00 in0.0 mm 0.00 in0.0 mm
01:48 PM 65.2°F18.4°C 57.6°F14.2°C 76% 6.3 mph WSW10.1 kmh WSW 13.0 mph20.9 kmh 30.12 in1020.0 mb 0.00 in0.0 mm 0.00 in0.0 mm 0.00 in0.0 mm
01:53 PM 65.6°F18.7°C 57.9°F14.4°C 76% 4.0 mph SW6.4 kmh SW 13.0 mph20.9 kmh 30.11 in1019.6 mb 0.00 in0.0 mm 0.00 in0.0 mm 0.00 in0.0 mm
01:58 PM 65.7°F18.7°C 58.0°F14.4°C 76% 3.6 mph SW5.8 kmh SW 13.0 mph20.9 kmh 30.11 in1019.6 mb 0.00 in0.0 mm 0.00 in0.0 mm 0.00 in0.0 mm
02:03 PM 65.9°F18.8°C 57.9°F14.4°C 75% 5.3 mph SW8.5 kmh SW 14.0 mph22.5 kmh 30.11 in1019.6 mb 0.00 in0.0 mm 0.00 in0.0 mm 0.00 in0.0 mm
02:08 PM 66.1°F18.9°C 58.1°F14.5°C 75% 2.4 mph WSW3.9 kmh WSW 14.0 mph22.5 kmh 30.10 in1019.3 mb 0.00 in0.0 mm 0.00 in0.0 mm 0.00 in0.0 mm
02:13 PM 65.9°F18.8°C 57.5°F14.2°C 74% 5.9 mph WSW9.5 kmh WSW 14.0 mph22.5 kmh 30.11 in1019.6 mb 0.00 in0.0 mm 0.00 in0.0 mm 0.00 in0.0 mm
02:18 PM 65.7°F18.7°C 57.7°F14.3°C 75% 5.9 mph WSW9.5 kmh WSW 14.0 mph22.5 kmh 30.10 in1019.3 mb 0.00 in0.0 mm 0.00 in0.0 mm 0.00 in0.0 mm
02:23 PM 65.8°F18.8°C 57.8°F14.3°C 75% 7.1 mph WSW11.4 kmh WSW 15.0 mph24.1 kmh 30.10 in1019.3 mb 0.00 in0.0 mm 0.00 in0.0 mm 0.00 in0.0 mm
02:28 PM 66.0°F18.9°C 58.0°F14.4°C 75% 5.0 mph WSW8.0 kmh WSW 15.0 mph24.1 kmh 30.10 in1019.3 mb 0.00 in0.0 mm 0.00 in0.0 mm 0.00 in0.0 mm
02:33 PM 66.1°F18.9°C 58.1°F14.5°C 75% 3.3 mph WSW5.3 kmh WSW 15.0 mph24.1 kmh 30.10 in1019.3 mb 0.00 in0.0 mm 0.00 in0.0 mm 0.00 in0.0 mm
02:38 PM 66.0°F18.9°C 57.8°F14.3°C 75% 7.4 mph WSW11.9 kmh WSW 15.0 mph24.1 kmh 30.10 in1019.3 mb 0.00 in0.0 mm 0.00 in0.0 mm 0.00 in0.0 mm
02:43 PM 65.9°F18.8°C 57.7°F14.3°C 75% 7.3 mph WSW11.7 kmh WSW 15.0 mph24.1 kmh 30.09 in1019.0 mb 0.00 in0.0 mm 0.00 in0.0 mm 0.00 in0.0 mm
02:48 PM 65.7°F18.7°C 57.6°F14.2°C 75% 7.1 mph WSW11.4 kmh WSW 17.0 mph27.4 kmh 30.09 in1019.0 mb 0.00 in0.0 mm 0.00 in0.0 mm 0.00 in0.0 mm
02:53 PM 65.7°F18.7°C 57.6°F14.2°C 75% 8.4 mph WSW13.5 kmh WSW 17.0 mph27.4 kmh 30.09 in1019.0 mb 0.00 in0.0 mm 0.00 in0.0 mm 0.00 in0.0 mm
02:58 PM 65.6°F18.7°C 57.8°F14.3°C 76% 6.5 mph WSW10.5 kmh WSW 17.0 mph27.4 kmh 30.09 in1019.0 mb 0.00 in0.0 mm 0.00 in0.0 mm 0.00 in0.0 mm
03:03 PM 65.8°F18.8°C 58.0°F14.4°C 76% 5.5 mph W8.9 kmh W 17.0 mph27.4 kmh 30.09 in1019.0 mb 0.00 in0.0 mm 0.00 in0.0 mm 0.00 in0.0 mm
03:08 PM 65.9°F18.8°C 57.7°F14.3°C 75% 4.3 mph W6.9 kmh W 15.0 mph24.1 kmh 30.09 in1019.0 mb 0.00 in0.0 mm 0.00 in0.0 mm 0.00 in0.0 mm
03:13 PM 65.8°F18.8°C 58.1°F14.5°C 76% 3.5 mph W5.6 kmh W 15.0 mph24.1 kmh 30.09 in1019.0 mb 0.00 in0.0 mm 0.00 in0.0 mm 0.00 in0.0 mm
03:18 PM 65.7°F18.7°C 58.0°F14.4°C 76% 3.3 mph W5.3 kmh W 10.0 mph16.1 kmh 30.09 in1019.0 mb 0.00 in0.0 mm 0.00 in0.0 mm 0.00 in0.0 mm
03:23 PM 65.6°F18.7°C 57.9°F14.4°C 76% 5.8 mph WSW9.3 kmh WSW 10.0 mph16.1 kmh 30.09 in1019.0 mb 0.00 in0.0 mm 0.00 in0.0 mm 0.00 in0.0 mm
03:28 PM 65.5°F18.6°C 57.8°F14.3°C 76% 4.8 mph WSW7.7 kmh WSW 11.0 mph17.7 kmh 30.09 in1019.0 mb 0.00 in0.0 mm 0.00 in0.0 mm 0.00 in0.0 mm
03:33 PM 65.3°F18.5°C 57.7°F14.3°C 76% 7.7 mph WSW12.4 kmh WSW 15.0 mph24.1 kmh 30.09 in1019.0 mb 0.00 in0.0 mm 0.00 in0.0 mm 0.00 in0.0 mm
03:38 PM 65.4°F18.6°C 58.1°F14.5°C 77% 4.0 mph SW6.4 kmh SW 15.0 mph24.1 kmh 30.09 in1019.0 mb 0.00 in0.0 mm 0.00 in0.0 mm 0.00 in0.0 mm
03:43 PM 66.0°F18.9°C 58.0°F14.4°C 75% 4.0 mph WSW6.4 kmh WSW 15.0 mph24.1 kmh 30.08 in1018.6 mb 0.00 in0.0 mm 0.00 in0.0 mm 0.00 in0.0 mm
03:48 PM 66.1°F18.9°C 58.1°F14.5°C 75% 4.4 mph WSW7.1 kmh WSW 15.0 mph24.1 kmh 30.09 in1019.0 mb 0.00 in0.0 mm 0.00 in0.0 mm 0.00 in0.0 mm
03:53 PM 66.0°F18.9°C 58.0°F14.4°C 75% 6.5 mph WSW10.5 kmh WSW 13.0 mph20.9 kmh 30.09 in1019.0 mb 0.00 in0.0 mm 0.00 in0.0 mm 0.00 in0.0 mm
03:58 PM 65.8°F18.8°C 58.1°F14.5°C 76% 8.6 mph WSW13.8 kmh WSW 14.0 mph22.5 kmh 30.08 in1018.6 mb 0.00 in0.0 mm 0.00 in0.0 mm 0.00 in0.0 mm
04:03 PM 65.7°F18.7°C 58.0°F14.4°C 76% 6.7 mph W10.8 kmh W 14.0 mph22.5 kmh 30.08 in1018.6 mb 0.00 in0.0 mm 0.00 in0.0 mm 0.00 in0.0 mm
04:08 PM 66.0°F18.9°C 58.3°F14.6°C 76% 5.8 mph W9.3 kmh W 14.0 mph22.5 kmh 30.08 in1018.6 mb 0.00 in0.0 mm 0.00 in0.0 mm 0.00 in0.0 mm
04:13 PM 66.4°F19.1°C 58.0°F14.4°C 74% 4.6 mph WSW7.4 kmh WSW 13.0 mph20.9 kmh 30.08 in1018.6 mb 0.00 in0.0 mm 0.00 in0.0 mm 0.00 in0.0 mm
04:18 PM 66.3°F19.1°C 57.9°F14.4°C 74% 5.6 mph W9.0 kmh W 13.0 mph20.9 kmh 30.09 in1019.0 mb 0.00 in0.0 mm 0.00 in0.0 mm 0.00 in0.0 mm
04:23 PM 66.2°F19.0°C 58.2°F14.6°C 75% 6.4 mph WSW10.3 kmh WSW 14.0 mph22.5 kmh 30.09 in1019.0 mb 0.00 in0.0 mm 0.00 in0.0 mm 0.00 in0.0 mm
04:28 PM 66.0°F18.9°C 58.0°F14.4°C 75% 5.2 mph WSW8.4 kmh WSW 14.0 mph22.5 kmh 30.09 in1019.0 mb 0.00 in0.0 mm 0.00 in0.0 mm 0.00 in0.0 mm
04:33 PM 65.9°F18.8°C 58.2°F14.6°C 76% 2.1 mph W3.4 kmh W 14.0 mph22.5 kmh 30.09 in1019.0 mb 0.00 in0.0 mm 0.00 in0.0 mm 0.00 in0.0 mm
04:38 PM 65.8°F18.8°C 58.1°F14.5°C 76% 5.6 mph WNW9.0 kmh WNW 14.0 mph22.5 kmh 30.09 in1019.0 mb 0.00 in0.0 mm 0.00 in0.0 mm 0.00 in0.0 mm
04:43 PM 65.4°F18.6°C 57.7°F14.3°C 76% 5.9 mph WNW9.5 kmh WNW 13.0 mph20.9 kmh 30.09 in1019.0 mb 0.00 in0.0 mm 0.00 in0.0 mm 0.00 in0.0 mm
04:48 PM 65.0°F18.3°C 57.7°F14.3°C 77% 7.6 mph WNW12.2 kmh WNW 14.0 mph22.5 kmh 30.09 in1019.0 mb 0.00 in0.0 mm 0.00 in0.0 mm 0.00 in0.0 mm
04:53 PM 64.9°F18.3°C 57.6°F14.2°C 77% 5.2 mph W8.4 kmh W 14.0 mph22.5 kmh 30.09 in1019.0 mb 0.00 in0.0 mm 0.00 in0.0 mm 0.00 in0.0 mm
04:58 PM 64.8°F18.2°C 57.5°F14.2°C 77% 3.8 mph WNW6.1 kmh WNW 14.0 mph22.5 kmh 30.09 in1019.0 mb 0.00 in0.0 mm 0.00 in0.0 mm 0.00 in0.0 mm
05:03 PM 64.8°F18.2°C 57.5°F14.2°C 77% 2.4 mph WNW3.9 kmh WNW 14.0 mph22.5 kmh 30.09 in1019.0 mb 0.00 in0.0 mm 0.00 in0.0 mm 0.00 in0.0 mm
05:08 PM 65.2°F18.4°C 57.6°F14.2°C 76% 4.3 mph WNW6.9 kmh WNW 12.0 mph19.3 kmh 30.08 in1018.6 mb 0.00 in0.0 mm 0.00 in0.0 mm 0.00 in0.0 mm
05:13 PM 65.4°F18.6°C 57.4°F14.1°C 75% 5.9 mph WNW9.5 kmh WNW 12.0 mph19.3 kmh 30.09 in1019.0 mb 0.00 in0.0 mm 0.00 in0.0 mm 0.00 in0.0 mm
05:18 PM 65.4°F18.6°C 57.4°F14.1°C 75% 5.2 mph W8.4 kmh W 15.0 mph24.1 kmh 30.09 in1019.0 mb 0.00 in0.0 mm 0.00 in0.0 mm 0.00 in0.0 mm
05:24 PM 65.7°F18.7°C 57.7°F14.3°C 75% 2.0 mph WNW3.2 kmh WNW 15.0 mph24.1 kmh 30.09 in1019.0 mb 0.00 in0.0 mm 0.00 in0.0 mm 0.00 in0.0 mm
05:28 PM 65.5°F18.6°C 57.5°F14.2°C 75% 6.0 mph W9.7 kmh W 15.0 mph24.1 kmh 30.09 in1019.0 mb 0.00 in0.0 mm 0.00 in0.0 mm 0.00 in0.0 mm
05:33 PM 65.0°F18.3°C 57.4°F14.1°C 76% 4.5 mph WNW7.2 kmh WNW 13.0 mph20.9 kmh 30.09 in1019.0 mb 0.00 in0.0 mm 0.00 in0.0 mm 0.00 in0.0 mm
05:39 PM 64.7°F18.2°C 57.1°F13.9°C 76% 5.1 mph W8.2 kmh W 10.0 mph16.1 kmh 30.09 in1019.0 mb 0.00 in0.0 mm 0.00 in0.0 mm 0.00 in0.0 mm
05:44 PM 64.6°F18.1°C 57.0°F13.9°C 76% 4.8 mph W7.7 kmh W 10.0 mph16.1 kmh 30.09 in1019.0 mb 0.00 in0.0 mm 0.00 in0.0 mm 0.00 in0.0 mm
05:49 PM 64.6°F18.1°C 57.3°F14.1°C 77% 2.7 mph W4.3 kmh W 10.0 mph16.1 kmh 30.09 in1019.0 mb 0.00 in0.0 mm 0.00 in0.0 mm 0.00 in0.0 mm
05:54 PM 64.8°F18.2°C 57.5°F14.2°C 77% 1.6 mph WNW2.6 kmh WNW 9.0 mph14.5 kmh 30.09 in1019.0 mb 0.00 in0.0 mm 0.00 in0.0 mm 0.00 in0.0 mm
05:58 PM 64.8°F18.2°C 57.2°F14.0°C 76% 2.5 mph W4.0 kmh W 9.0 mph14.5 kmh 30.09 in1019.0 mb 0.00 in0.0 mm 0.00 in0.0 mm 0.00 in0.0 mm
06:04 PM 64.7°F18.2°C 57.4°F14.1°C 77% 1.5 mph W2.4 kmh W 8.0 mph12.9 kmh 30.09 in1019.0 mb 0.00 in0.0 mm 0.00 in0.0 mm 0.00 in0.0 mm
06:09 PM 64.7°F18.2°C 57.4°F14.1°C 77% 1.9 mph WSW3.1 kmh WSW 8.0 mph12.9 kmh 30.08 in1018.6 mb 0.00 in0.0 mm 0.00 in0.0 mm 0.00 in0.0 mm
06:14 PM 64.7°F18.2°C 57.4°F14.1°C 77% 2.9 mph W4.7 kmh W 8.0 mph12.9 kmh 30.09 in1019.0 mb 0.00 in0.0 mm 0.00 in0.0 mm 0.00 in0.0 mm
06:18 PM 64.5°F18.1°C 57.2°F14.0°C 77% 2.1 mph W3.4 kmh W 7.0 mph11.3 kmh 30.09 in1019.0 mb 0.00 in0.0 mm 0.00 in0.0 mm 0.00 in0.0 mm
06:23 PM 64.3°F17.9°C 57.0°F13.9°C 77% 1.5 mph W2.4 kmh W 7.0 mph11.3 kmh 30.09 in1019.0 mb 0.00 in0.0 mm 0.00 in0.0 mm 0.00 in0.0 mm
06:28 PM 64.0°F17.8°C 57.1°F13.9°C 78% 3.3 mph W5.3 kmh W 7.0 mph11.3 kmh 30.09 in1019.0 mb 0.00 in0.0 mm 0.00 in0.0 mm 0.00 in0.0 mm
06:33 PM 63.7°F17.6°C 57.1°F13.9°C 79% 3.0 mph W4.8 kmh W 7.0 mph11.3 kmh 30.09 in1019.0 mb 0.00 in0.0 mm 0.00 in0.0 mm 0.00 in0.0 mm
06:38 PM 63.5°F17.5°C 56.9°F13.8°C 79% 1.6 mph W2.6 kmh W 7.0 mph11.3 kmh 30.10 in1019.3 mb 0.00 in0.0 mm 0.00 in0.0 mm 0.00 in0.0 mm
06:43 PM 63.3°F17.4°C 57.1°F13.9°C 80% 1.6 mph W2.6 kmh W 7.0 mph11.3 kmh 30.09 in1019.0 mb 0.00 in0.0 mm 0.00 in0.0 mm 0.00 in0.0 mm
06:48 PM 63.1°F17.3°C 56.9°F13.8°C 80% 1.9 mph WNW3.1 kmh WNW 7.0 mph11.3 kmh 30.09 in1019.0 mb 0.00 in0.0 mm 0.00 in0.0 mm 0.00 in0.0 mm
06:53 PM 62.8°F17.1°C 56.9°F13.8°C 81% 2.2 mph WNW3.5 kmh WNW 6.0 mph9.7 kmh 30.09 in1019.0 mb 0.00 in0.0 mm 0.00 in0.0 mm 0.00 in0.0 mm
06:58 PM 62.6°F17.0°C 56.7°F13.7°C 81% 1.9 mph W3.1 kmh W 6.0 mph9.7 kmh 30.09 in1019.0 mb 0.00 in0.0 mm 0.00 in0.0 mm 0.00 in0.0 mm
07:03 PM 62.5°F16.9°C 56.6°F13.7°C 81% 1.6 mph W2.6 kmh W 6.0 mph9.7 kmh 30.09 in1019.0 mb 0.00 in0.0 mm 0.00 in0.0 mm 0.00 in0.0 mm
07:08 PM 62.3°F16.8°C 56.4°F13.6°C 81% 2.6 mph W4.2 kmh W 6.0 mph9.7 kmh 30.09 in1019.0 mb 0.00 in0.0 mm 0.00 in0.0 mm 0.00 in0.0 mm
07:13 PM 62.2°F16.8°C 56.6°F13.7°C 82% 2.2 mph W3.5 kmh W 9.0 mph14.5 kmh 30.09 in1019.0 mb 0.00 in0.0 mm 0.00 in0.0 mm 0.00 in0.0 mm
07:18 PM 62.0°F16.7°C 56.4°F13.6°C 82% 2.1 mph W3.4 kmh W 9.0 mph14.5 kmh 30.09 in1019.0 mb 0.00 in0.0 mm 0.00 in0.0 mm 0.00 in0.0 mm
07:23 PM 61.8°F16.6°C 56.3°F13.5°C 82% 1.7 mph W2.7 kmh W 9.0 mph14.5 kmh 30.09 in1019.0 mb 0.00 in0.0 mm 0.00 in0.0 mm 0.00 in0.0 mm
07:28 PM 61.6°F16.4°C 56.4°F13.6°C 83% 1.6 mph W2.6 kmh W 9.0 mph14.5 kmh 30.09 in1019.0 mb 0.00 in0.0 mm 0.00 in0.0 mm 0.00 in0.0 mm
07:33 PM 61.5°F16.4°C 56.3°F13.5°C 83% 2.2 mph WSW3.5 kmh WSW 5.0 mph8.0 kmh 30.09 in1019.0 mb 0.00 in0.0 mm 0.00 in0.0 mm 0.00 in0.0 mm
07:38 PM 61.4°F16.3°C 56.2°F13.4°C 83% 1.1 mph WSW1.8 kmh WSW 4.0 mph6.4 kmh 30.09 in1019.0 mb 0.00 in0.0 mm 0.00 in0.0 mm 0.00 in0.0 mm
07:43 PM 61.1°F16.2°C 56.2°F13.4°C 84% 1.3 mph WSW2.1 kmh WSW 4.0 mph6.4 kmh 30.09 in1019.0 mb 0.00 in0.0 mm 0.00 in0.0 mm 0.00 in0.0 mm
07:48 PM 60.9°F16.1°C 56.1°F13.4°C 84% 1.1 mph W1.8 kmh W 4.0 mph6.4 kmh 30.09 in1019.0 mb 0.00 in0.0 mm 0.00 in0.0 mm 0.00 in0.0 mm
07:53 PM 60.7°F15.9°C 56.2°F13.4°C 85% 1.4 mph WSW2.3 kmh WSW 4.0 mph6.4 kmh 30.10 in1019.3 mb 0.00 in0.0 mm 0.00 in0.0 mm 0.00 in0.0 mm
07:58 PM 60.5°F15.8°C 56.0°F13.3°C 85% 1.5 mph WSW2.4 kmh WSW 4.0 mph6.4 kmh 30.10 in1019.3 mb 0.00 in0.0 mm 0.00 in0.0 mm 0.00 in0.0 mm
08:03 PM 60.4°F15.8°C 56.2°F13.4°C 86% 1.8 mph W2.9 kmh W 4.0 mph6.4 kmh 30.10 in1019.3 mb 0.00 in0.0 mm 0.00 in0.0 mm 0.00 in0.0 mm
08:08 PM 60.3°F15.7°C 56.1°F13.4°C 86% 1.4 mph WSW2.3 kmh WSW 4.0 mph6.4 kmh 30.10 in1019.3 mb 0.00 in0.0 mm 0.00 in0.0 mm 0.00 in0.0 mm
08:13 PM 60.1°F15.6°C 55.9°F13.3°C 86% 1.0 mph WSW1.6 kmh WSW 4.0 mph6.4 kmh 30.09 in1019.0 mb 0.00 in0.0 mm 0.00 in0.0 mm 0.00 in0.0 mm
08:18 PM 60.0°F15.6°C 55.8°F13.2°C 86% 1.3 mph WSW2.1 kmh WSW 3.0 mph4.8 kmh 30.09 in1019.0 mb 0.00 in0.0 mm 0.00 in0.0 mm 0.00 in0.0 mm
08:23 PM 59.8°F15.4°C 55.9°F13.3°C 87% 1.7 mph WSW2.7 kmh WSW 3.0 mph4.8 kmh 30.09 in1019.0 mb 0.00 in0.0 mm 0.00 in0.0 mm 0.00 in0.0 mm
08:28 PM 59.7°F15.4°C 55.8°F13.2°C 87% 1.8 mph WSW2.9 kmh WSW 5.0 mph8.0 kmh 30.09 in1019.0 mb 0.00 in0.0 mm 0.00 in0.0 mm 0.00 in0.0 mm
08:33 PM 59.6°F15.3°C 55.7°F13.2°C 87% 2.2 mph WSW3.5 kmh WSW 5.0 mph8.0 kmh 30.09 in1019.0 mb 0.00 in0.0 mm 0.00 in0.0 mm 0.00 in0.0 mm
08:38 PM 59.5°F15.3°C 55.6°F13.1°C 87% 1.7 mph WSW2.7 kmh WSW 5.0 mph8.0 kmh 30.09 in1019.0 mb 0.00 in0.0 mm 0.00 in0.0 mm 0.00 in0.0 mm
08:43 PM 59.4°F15.2°C 55.5°F13.1°C 87% 1.2 mph WSW1.9 kmh WSW 5.0 mph8.0 kmh 30.09 in1019.0 mb 0.00 in0.0 mm 0.00 in0.0 mm 0.00 in0.0 mm
08:48 PM 59.3°F15.2°C 55.4°F13.0°C 87% 2.0 mph WSW3.2 kmh WSW 5.0 mph8.0 kmh 30.09 in1019.0 mb 0.00 in0.0 mm 0.00 in0.0 mm 0.00 in0.0 mm
08:53 PM 59.2°F15.1°C 55.3°F12.9°C 87% 1.9 mph WSW3.1 kmh WSW 4.0 mph6.4 kmh 30.09 in1019.0 mb 0.00 in0.0 mm 0.00 in0.0 mm 0.00 in0.0 mm
08:58 PM 59.3°F15.2°C 55.4°F13.0°C 87% 1.8 mph WSW2.9 kmh WSW 7.0 mph11.3 kmh 30.09 in1019.0 mb 0.00 in0.0 mm 0.00 in0.0 mm 0.00 in0.0 mm
09:03 PM 59.2°F15.1°C 55.3°F12.9°C 87% 2.5 mph WSW4.0 kmh WSW 7.0 mph11.3 kmh 30.09 in1019.0 mb 0.00 in0.0 mm 0.00 in0.0 mm 0.00 in0.0 mm
09:08 PM 59.2°F15.1°C 55.3°F12.9°C 87% 1.4 mph WSW2.3 kmh WSW 7.0 mph11.3 kmh 30.09 in1019.0 mb 0.00 in0.0 mm 0.00 in0.0 mm 0.00 in0.0 mm
09:13 PM 59.1°F15.1°C 55.2°F12.9°C 87% 1.9 mph WSW3.1 kmh WSW 7.0 mph11.3 kmh 30.09 in1019.0 mb 0.00 in0.0 mm 0.00 in0.0 mm 0.00 in0.0 mm
09:18 PM 59.1°F15.1°C 55.2°F12.9°C 87% 2.4 mph WSW3.9 kmh WSW 7.0 mph11.3 kmh 30.09 in1019.0 mb 0.00 in0.0 mm 0.00 in0.0 mm 0.00 in0.0 mm
09:23 PM 59.0°F15.0°C 55.1°F12.8°C 87% 2.7 mph WSW4.3 kmh WSW 7.0 mph11.3 kmh 30.09 in1019.0 mb 0.00 in0.0 mm 0.00 in0.0 mm 0.00 in0.0 mm
09:28 PM 58.8°F14.9°C 54.9°F12.7°C 87% 2.0 mph WSW3.2 kmh WSW 7.0 mph11.3 kmh 30.08 in1018.6 mb 0.00 in0.0 mm 0.00 in0.0 mm 0.00 in0.0 mm
09:33 PM 58.7°F14.8°C 54.8°F12.7°C 87% 2.5 mph SW4.0 kmh SW 6.0 mph9.7 kmh 30.08 in1018.6 mb 0.00 in0.0 mm 0.00 in0.0 mm 0.00 in0.0 mm
09:38 PM 58.6°F14.8°C 54.7°F12.6°C 87% 2.3 mph WSW3.7 kmh WSW 6.0 mph9.7 kmh 30.09 in1019.0 mb 0.00 in0.0 mm 0.00 in0.0 mm 0.00 in0.0 mm
09:43 PM 58.4°F14.7°C 54.9°F12.7°C 88% 1.3 mph WSW2.1 kmh WSW 6.0 mph9.7 kmh 30.09 in1019.0 mb 0.00 in0.0 mm 0.00 in0.0 mm 0.00 in0.0 mm
09:48 PM 58.3°F14.6°C 54.7°F12.6°C 88% 2.1 mph WSW3.4 kmh WSW 6.0 mph9.7 kmh 30.09 in1019.0 mb 0.00 in0.0 mm 0.00 in0.0 mm 0.00 in0.0 mm
09:53 PM 58.3°F14.6°C 54.7°F12.6°C 88% 2.4 mph WSW3.9 kmh WSW 7.0 mph11.3 kmh 30.09 in1019.0 mb 0.00 in0.0 mm 0.00 in0.0 mm 0.00 in0.0 mm
09:58 PM 58.3°F14.6°C 54.7°F12.6°C 88% 2.4 mph WSW3.9 kmh WSW 7.0 mph11.3 kmh 30.09 in1019.0 mb 0.00 in0.0 mm 0.00 in0.0 mm 0.00 in0.0 mm
10:03 PM 58.2°F14.6°C 54.6°F12.6°C 88% 2.9 mph WSW4.7 kmh WSW 7.0 mph11.3 kmh 30.09 in1019.0 mb 0.00 in0.0 mm 0.00 in0.0 mm 0.00 in0.0 mm
10:08 PM 58.2°F14.6°C 54.6°F12.6°C 88% 2.2 mph WSW3.5 kmh WSW 7.0 mph11.3 kmh 30.09 in1019.0 mb 0.00 in0.0 mm 0.00 in0.0 mm 0.00 in0.0 mm
10:13 PM 58.2°F14.6°C 54.6°F12.6°C 88% 3.4 mph WSW5.5 kmh WSW 7.0 mph11.3 kmh 30.09 in1019.0 mb 0.00 in0.0 mm 0.00 in0.0 mm 0.00 in0.0 mm
10:18 PM 58.3°F14.6°C 54.7°F12.6°C 88% 3.5 mph WSW5.6 kmh WSW 9.0 mph14.5 kmh 30.09 in1019.0 mb 0.00 in0.0 mm 0.00 in0.0 mm 0.00 in0.0 mm
10:23 PM 58.3°F14.6°C 54.7°F12.6°C 88% 2.9 mph WSW4.7 kmh WSW 10.0 mph16.1 kmh 30.09 in1019.0 mb 0.00 in0.0 mm 0.00 in0.0 mm 0.00 in0.0 mm
10:28 PM 58.2°F14.6°C 54.6°F12.6°C 88% 2.6 mph WSW4.2 kmh WSW 10.0 mph16.1 kmh 30.09 in1019.0 mb 0.00 in0.0 mm 0.00 in0.0 mm 0.00 in0.0 mm
10:33 PM 58.4°F14.7°C 54.8°F12.7°C 88% 4.1 mph WSW6.6 kmh WSW 10.0 mph16.1 kmh 30.09 in1019.0 mb 0.00 in0.0 mm 0.00 in0.0 mm 0.00 in0.0 mm
10:38 PM 58.4°F14.7°C 54.8°F12.7°C 88% 3.2 mph WSW5.1 kmh WSW 10.0 mph16.1 kmh 30.09 in1019.0 mb 0.00 in0.0 mm 0.00 in0.0 mm 0.00 in0.0 mm
10:43 PM 58.4°F14.7°C 54.8°F12.7°C 88% 2.9 mph WSW4.7 kmh WSW 10.0 mph16.1 kmh 30.09 in1019.0 mb 0.00 in0.0 mm 0.00 in0.0 mm 0.00 in0.0 mm
10:48 PM 58.3°F14.6°C 54.7°F12.6°C 88% 2.8 mph WSW4.5 kmh WSW 10.0 mph16.1 kmh 30.09 in1019.0 mb 0.00 in0.0 mm 0.00 in0.0 mm 0.00 in0.0 mm
10:53 PM 58.2°F14.6°C 54.9°F12.7°C 89% 2.7 mph WSW4.3 kmh WSW 10.0 mph16.1 kmh 30.08 in1018.6 mb 0.00 in0.0 mm 0.00 in0.0 mm 0.00 in0.0 mm
10:58 PM 58.1°F14.5°C 54.8°F12.7°C 89% 2.6 mph WSW4.2 kmh WSW 8.0 mph12.9 kmh 30.09 in1019.0 mb 0.00 in0.0 mm 0.00 in0.0 mm 0.00 in0.0 mm
11:03 PM 58.1°F14.5°C 54.8°F12.7°C 89% 2.7 mph WSW4.3 kmh WSW 8.0 mph12.9 kmh 30.09 in1019.0 mb 0.00 in0.0 mm 0.00 in0.0 mm 0.00 in0.0 mm
11:08 PM 58.0°F14.4°C 54.8°F12.7°C 89% 1.9 mph WSW3.1 kmh WSW 8.0 mph12.9 kmh 30.08 in1018.6 mb 0.00 in0.0 mm 0.00 in0.0 mm 0.00 in0.0 mm
11:13 PM 57.9°F14.4°C 54.7°F12.6°C 89% 2.6 mph WSW4.2 kmh WSW 7.0 mph11.3 kmh 30.08 in1018.6 mb 0.00 in0.0 mm 0.00 in0.0 mm 0.00 in0.0 mm
11:17 PM 57.8°F14.3°C 54.6°F12.6°C 89% 2.7 mph WSW4.3 kmh WSW 7.0 mph11.3 kmh 30.09 in1019.0 mb 0.00 in0.0 mm 0.00 in0.0 mm 0.00 in0.0 mm
11:22 PM 57.7°F14.3°C 54.5°F12.5°C 89% 2.3 mph WSW3.7 kmh WSW 7.0 mph11.3 kmh 30.09 in1019.0 mb 0.00 in0.0 mm 0.00 in0.0 mm 0.00 in0.0 mm
11:27 PM 57.6°F14.2°C 54.7°F12.6°C 90% 2.4 mph WSW3.9 kmh WSW 7.0 mph11.3 kmh 30.09 in1019.0 mb 0.00 in0.0 mm 0.00 in0.0 mm 0.00 in0.0 mm
11:32 PM 57.5°F14.2°C 54.6°F12.6°C 90% 2.1 mph WSW3.4 kmh WSW 7.0 mph11.3 kmh 30.09 in1019.0 mb 0.00 in0.0 mm 0.00 in0.0 mm 0.00 in0.0 mm
11:37 PM 57.3°F14.1°C 54.4°F12.4°C 90% 2.1 mph W3.4 kmh W 7.0 mph11.3 kmh 30.08 in1018.6 mb 0.00 in0.0 mm 0.00 in0.0 mm 0.00 in0.0 mm
11:42 PM 57.2°F14.0°C 54.3°F12.4°C 90% 2.6 mph W4.2 kmh W 6.0 mph9.7 kmh 30.09 in1019.0 mb 0.00 in0.0 mm 0.00 in0.0 mm 0.00 in0.0 mm
11:47 PM 57.0°F13.9°C 54.1°F12.3°C 90% 1.9 mph W3.1 kmh W 5.0 mph8.0 kmh 30.09 in1019.0 mb 0.00 in0.0 mm 0.00 in0.0 mm 0.00 in0.0 mm
11:52 PM 56.9°F13.8°C 54.0°F12.2°C 90% 2.0 mph W3.2 kmh W 7.0 mph11.3 kmh 30.08 in1018.6 mb 0.00 in0.0 mm 0.00 in0.0 mm 0.00 in0.0 mm
11:57 PM 56.7°F13.7°C 53.8°F12.1°C 90% 2.4 mph W3.9 kmh W 7.0 mph11.3 kmh 30.08 in1018.6 mb 0.00 in0.0 mm 0.00 in0.0 mm 0.00 in0.0 mm